Time;durP1;ratioP1;P1;durP2;ratioP2;P2;SDS_P1;SDS_P2;PMS_P1;PMS_P2;Temp;Humidity;BMP_temperature;BMP_pressure;BME280_temperature;BME280_humidity;BME280_pressure;Samples;Min_cycle;Max_cycle;Signal;HPM_P1;HPM_P2
2022/03/20 00:00:50;;;;;;;25.83;17.75;;;;;;;;;;5013171;28;20645;-51
2022/03/20 00:03:16;;;;;;;26.10;18.65;;;;;;;;;;5013149;28;20214;-52
2022/03/20 00:05:42;;;;;;;26.42;18.75;;;;;;;;;;5013050;28;20165;-50
2022/03/20 00:08:09;;;;;;;22.80;17.30;;;;;;;;;;5013104;28;20168;-47
2022/03/20 00:10:36;;;;;;;28.50;17.67;;;;;;;;;;5013121;28;20164;-48
2022/03/20 00:13:06;;;;;;;25.55;17.52;;;;;;;;;;5013143;28;20172;-48
2022/03/20 00:15:32;;;;;;;23.15;18.58;;;;;;;;;;5013129;28;20160;-48
2022/03/20 00:17:58;;;;;;;30.03;18.40;;;;;;;;;;5012939;28;20604;-48
2022/03/20 00:20:24;;;;;;;25.83;17.93;;;;;;;;;;5012803;28;20438;-47
2022/03/20 00:22:50;;;;;;;28.47;18.43;;;;;;;;;;5012917;28;20416;-47
2022/03/20 00:25:16;;;;;;;25.03;17.77;;;;;;;;;;5013032;28;20883;-48
2022/03/20 00:27:42;;;;;;;26.73;18.30;;;;;;;;;;5013022;28;20922;-47
2022/03/20 00:30:08;;;;;;;27.67;18.70;;;;;;;;;;5012611;28;20526;-48
2022/03/20 00:32:34;;;;;;;31.92;18.70;;;;;;;;;;5012709;28;20314;-48
2022/03/20 00:35:00;;;;;;;24.77;18.60;;;;;;;;;;5012812;28;20203;-47
2022/03/20 00:37:27;;;;;;;26.93;16.60;;;;;;;;;;5012789;28;20392;-47
2022/03/20 00:39:53;;;;;;;24.20;18.52;;;;;;;;;;5012448;28;20605;-49
2022/03/20 00:42:19;;;;;;;27.80;17.20;;;;;;;;;;5012586;28;20485;-48
2022/03/20 00:44:45;;;;;;;27.90;19.40;;;;;;;;;;5011871;28;20399;-48
2022/03/20 00:47:11;;;;;;;29.03;18.80;;;;;;;;;;5012638;28;20171;-48
2022/03/20 00:49:37;;;;;;;28.38;18.38;;;;;;;;;;5012248;28;20438;-48
2022/03/20 00:52:04;;;;;;;28.05;18.85;;;;;;;;;;5012486;28;20215;-47
2022/03/20 00:54:30;;;;;;;24.67;19.02;;;;;;;;;;5012494;28;20251;-48
2022/03/20 00:56:56;;;;;;;27.65;18.05;;;;;;;;;;5012157;28;20547;-47
2022/03/20 00:59:22;;;;;;;29.33;17.53;;;;;;;;;;5011967;28;20200;-48
2022/03/20 01:01:48;;;;;;;26.67;19.17;;;;;;;;;;5012329;28;20442;-47
2022/03/20 01:04:14;;;;;;;27.53;17.70;;;;;;;;;;5012132;28;20481;-47
2022/03/20 01:06:40;;;;;;;27.30;19.13;;;;;;;;;;5012228;28;20395;-48
2022/03/20 01:09:07;;;;;;;22.67;17.38;;;;;;;;;;5012179;28;20404;-48
2022/03/20 01:11:34;;;;;;;36.58;18.05;;;;;;;;;;5011489;28;20222;-48
2022/03/20 01:14:00;;;;;;;25.42;17.50;;;;;;;;;;5011012;28;20176;-48
2022/03/20 01:16:26;;;;;;;25.30;18.20;;;;;;;;;;5011276;28;20172;-47
2022/03/20 01:18:53;;;;;;;28.40;18.20;;;;;;;;;;5012187;28;20227;-48
2022/03/20 01:21:18;;;;;;;27.30;17.47;;;;;;;;;;5011778;28;20292;-48
2022/03/20 01:23:45;;;;;;;30.60;18.90;;;;;;;;;;5012096;28;20442;-48
2022/03/20 01:26:11;;;;;;;31.73;19.88;;;;;;;;;;5012099;28;20465;-48
2022/03/20 01:28:37;;;;;;;27.25;19.15;;;;;;;;;;5011934;28;20251;-48
2022/03/20 01:31:03;;;;;;;27.88;18.83;;;;;;;;;;5011723;28;20192;-48
2022/03/20 01:33:29;;;;;;;25.77;17.50;;;;;;;;;;5012041;28;20176;-48
2022/03/20 01:35:55;;;;;;;30.48;17.83;;;;;;;;;;5011996;28;20414;-47
2022/03/20 01:38:21;;;;;;;22.37;18.10;;;;;;;;;;5012352;28;20271;-48
2022/03/20 01:40:48;;;;;;;23.70;16.60;;;;;;;;;;5011618;28;20434;-47
2022/03/20 01:43:14;;;;;;;31.00;19.08;;;;;;;;;;5011816;28;20847;-47
2022/03/20 01:45:40;;;;;;;27.52;17.17;;;;;;;;;;5011904;28;20741;-48
2022/03/20 01:48:06;;;;;;;30.55;19.13;;;;;;;;;;5011917;28;20176;-48
2022/03/20 01:50:32;;;;;;;30.60;18.20;;;;;;;;;;5011724;28;20176;-48
2022/03/20 01:52:58;;;;;;;26.10;15.90;;;;;;;;;;5011760;28;20510;-47
2022/03/20 01:55:25;;;;;;;25.67;17.30;;;;;;;;;;5011858;28;20406;-47
2022/03/20 01:57:54;;;;;;;23.75;16.60;;;;;;;;;;5011718;28;20184;-48
2022/03/20 02:00:21;;;;;;;27.83;18.02;;;;;;;;;;5011525;28;20167;-48
2022/03/20 02:02:47;;;;;;;26.70;18.75;;;;;;;;;;5010787;28;20208;-47
2022/03/20 02:05:14;;;;;;;22.67;16.73;;;;;;;;;;5011387;28;20172;-47
2022/03/20 02:07:41;;;;;;;25.95;17.50;;;;;;;;;;5012548;28;20633;-47
2022/03/20 02:10:07;;;;;;;28.13;18.48;;;;;;;;;;5015195;28;20652;-48
2022/03/20 02:12:35;;;;;;;34.42;19.25;;;;;;;;;;5015339;28;20541;-48
2022/03/20 02:15:01;;;;;;;25.70;18.13;;;;;;;;;;5015532;28;20210;-48
2022/03/20 02:17:30;;;;;;;27.35;17.55;;;;;;;;;;5015661;28;20559;-47
2022/03/20 02:20:03;;;;;;;27.55;17.75;;;;;;;;;;5015036;28;20559;-47
2022/03/20 02:22:30;;;;;;;28.45;18.92;;;;;;;;;;5015198;28;20192;-48
2022/03/20 02:24:56;;;;;;;27.63;17.85;;;;;;;;;;5015531;28;20172;-48
2022/03/20 02:27:23;;;;;;;27.27;16.52;;;;;;;;;;5015281;28;20173;-47
2022/03/20 02:29:52;;;;;;;26.48;17.58;;;;;;;;;;5014895;28;20164;-48
2022/03/20 02:32:19;;;;;;;26.83;17.38;;;;;;;;;;5014985;28;20203;-48
2022/03/20 02:34:49;;;;;;;27.42;17.30;;;;;;;;;;5015090;28;20537;-48
2022/03/20 02:37:17;;;;;;;29.98;17.58;;;;;;;;;;5014968;28;20168;-47
2022/03/20 02:39:44;;;;;;;26.52;16.73;;;;;;;;;;5014851;28;20239;-48
2022/03/20 02:42:12;;;;;;;28.05;18.83;;;;;;;;;;5014949;28;20559;-48
2022/03/20 02:45:03;;;;;;;25.42;18.92;;;;;;;;;;5015204;28;20627;-48
2022/03/20 02:47:30;;;;;;;23.67;16.75;;;;;;;;;;5014883;28;20169;-48
2022/03/20 02:49:57;;;;;;;26.38;18.20;;;;;;;;;;5014584;28;20164;-47
2022/03/20 02:52:43;;;;;;;24.13;17.40;;;;;;;;;;5014594;28;20227;-48
2022/03/20 02:55:09;;;;;;;29.17;18.77;;;;;;;;;;5013340;28;20326;-49
2022/03/20 02:57:35;;;;;;;26.40;17.88;;;;;;;;;;5014653;28;20251;-48
2022/03/20 03:00:03;;;;;;;27.40;16.38;;;;;;;;;;5014285;28;20196;-47
2022/03/20 03:02:36;;;;;;;21.98;16.38;;;;;;;;;;5014350;28;20207;-48
2022/03/20 03:05:03;;;;;;;23.70;16.17;;;;;;;;;;5014520;28;20183;-47
2022/03/20 03:10:55;;;;;;;31.83;16.35;;;;;;;;;;5014520;28;20171;-47
2022/03/20 03:13:06;;;;;;;27.40;17.75;;;;;;;;;;5014575;28;20195;-48
2022/03/20 03:15:32;;;;;;;24.35;17.10;;;;;;;;;;5014238;28;20263;-48
2022/03/20 03:17:58;;;;;;;26.00;16.20;;;;;;;;;;5014186;28;20258;-47
2022/03/20 03:20:24;;;;;;;24.15;16.60;;;;;;;;;;5012792;28;20434;-47
2022/03/20 03:22:50;;;;;;;25.60;17.40;;;;;;;;;;5014518;28;20269;-48
2022/03/20 03:25:18;;;;;;;29.60;18.27;;;;;;;;;;5014039;28;20392;-47
2022/03/20 03:27:44;;;;;;;24.23;17.77;;;;;;;;;;5014096;28;20438;-48
2022/03/20 03:30:12;;;;;;;26.47;18.33;;;;;;;;;;5013860;28;20461;-48
2022/03/20 03:32:40;;;;;;;23.40;16.55;;;;;;;;;;5013777;28;20454;-49
2022/03/20 03:38:24;;;;;;;28.05;17.13;;;;;;;;;;4972475;28;20211;-48
2022/03/20 03:40:50;;;;;;;27.15;17.92;;;;;;;;;;4972057;28;20181;-48
2022/03/20 03:43:17;;;;;;;21.57;15.97;;;;;;;;;;4995267;28;20184;-48
2022/03/20 03:45:43;;;;;;;29.70;16.75;;;;;;;;;;5013697;28;20776;-49
2022/03/20 03:48:10;;;;;;;26.02;16.48;;;;;;;;;;5013607;28;20248;-48
2022/03/20 03:50:36;;;;;;;25.35;17.13;;;;;;;;;;5013436;28;20172;-47
2022/03/20 03:53:03;;;;;;;27.45;16.92;;;;;;;;;;5013554;28;20222;-47
2022/03/20 03:55:30;;;;;;;23.35;16.88;;;;;;;;;;5013622;28;20534;-48
2022/03/20 03:57:55;;;;;;;25.98;16.73;;;;;;;;;;5013466;28;20243;-50
2022/03/20 04:00:22;;;;;;;27.37;16.77;;;;;;;;;;5013331;28;20259;-49
2022/03/20 04:02:48;;;;;;;24.92;17.13;;;;;;;;;;5013090;28;20446;-48
2022/03/20 04:05:15;;;;;;;24.08;16.35;;;;;;;;;;5013442;28;20633;-47
2022/03/20 04:07:41;;;;;;;29.75;17.15;;;;;;;;;;5013319;28;20192;-47
2022/03/20 04:10:07;;;;;;;24.27;16.58;;;;;;;;;;5013144;28;20172;-48
2022/03/20 04:12:36;;;;;;;24.42;17.95;;;;;;;;;;5013201;28;20694;-48
2022/03/20 04:15:03;;;;;;;27.63;17.00;;;;;;;;;;5013210;28;20168;-47
2022/03/20 04:17:30;;;;;;;24.63;16.73;;;;;;;;;;5013163;28;20192;-48
2022/03/20 04:19:56;;;;;;;23.25;16.10;;;;;;;;;;5012854;28;20590;-48
2022/03/20 04:22:22;;;;;;;24.75;16.77;;;;;;;;;;5012925;28;20707;-48
2022/03/20 04:24:50;;;;;;;27.13;17.73;;;;;;;;;;5012952;28;20659;-48
2022/03/20 04:27:16;;;;;;;23.45;16.30;;;;;;;;;;5013079;28;20186;-48
2022/03/20 04:29:42;;;;;;;23.50;16.23;;;;;;;;;;5012639;28;20173;-48
2022/03/20 04:32:08;;;;;;;24.33;15.03;;;;;;;;;;5012452;28;20437;-47
2022/03/20 04:34:35;;;;;;;34.03;16.90;;;;;;;;;;5012922;28;20407;-48
2022/03/20 04:37:04;;;;;;;24.17;16.60;;;;;;;;;;5012901;28;20167;-49
2022/03/20 04:39:30;;;;;;;22.33;15.70;;;;;;;;;;5012495;28;20197;-48
2022/03/20 04:41:56;;;;;;;21.75;16.48;;;;;;;;;;5012608;28;20277;-47
2022/03/20 04:44:22;;;;;;;26.60;16.70;;;;;;;;;;5012662;28;20215;-48
2022/03/20 04:46:49;;;;;;;23.90;15.85;;;;;;;;;;5012685;28;20407;-48
2022/03/20 05:00:13;;;;;;;24.38;15.70;;;;;;;;;;5012315;28;20179;-48
2022/03/20 05:02:39;;;;;;;23.80;15.60;;;;;;;;;;5012148;28;20200;-48
2022/03/20 05:05:08;;;;;;;24.50;16.20;;;;;;;;;;5012426;28;20168;-50
2022/03/20 05:07:34;;;;;;;19.38;14.65;;;;;;;;;;5012355;28;20545;-48
2022/03/20 05:15:30;;;;;;;26.70;15.32;;;;;;;;;;5009115;28;20667;-48
2022/03/20 05:17:56;;;;;;;28.58;16.75;;;;;;;;;;5012343;28;20179;-48
2022/03/20 05:20:23;;;;;;;23.75;15.98;;;;;;;;;;5012081;28;20168;-48
2022/03/20 05:22:49;;;;;;;23.40;14.02;;;;;;;;;;5011991;28;20180;-48
2022/03/20 05:25:16;;;;;;;25.70;15.63;;;;;;;;;;5012227;28;20169;-48
2022/03/20 05:27:42;;;;;;;23.30;15.73;;;;;;;;;;5012022;28;20164;-48
2022/03/20 05:30:08;;;;;;;24.95;15.98;;;;;;;;;;5011762;28;20544;-47
2022/03/20 05:32:37;;;;;;;21.58;13.93;;;;;;;;;;5011672;28;20191;-48
2022/03/20 05:35:08;;;;;;;25.38;16.55;;;;;;;;;;5012126;28;20614;-47
2022/03/20 05:37:34;;;;;;;20.63;15.43;;;;;;;;;;5011973;28;20172;-48
2022/03/20 05:40:00;;;;;;;26.77;16.25;;;;;;;;;;5011523;28;20652;-48
2022/03/20 05:42:26;;;;;;;24.00;15.75;;;;;;;;;;5012382;28;20192;-48
2022/03/20 05:44:52;;;;;;;23.27;16.13;;;;;;;;;;5015825;28;20164;-48
2022/03/20 05:47:18;;;;;;;25.03;15.60;;;;;;;;;;5015922;28;20411;-48
2022/03/20 05:49:45;;;;;;;24.60;16.63;;;;;;;;;;5015816;28;20416;-48
2022/03/20 05:52:11;;;;;;;25.02;17.38;;;;;;;;;;5015757;28;21268;-48
2022/03/20 05:54:37;;;;;;;21.98;15.68;;;;;;;;;;5015835;28;20567;-47
2022/03/20 05:59:49;;;;;;;22.92;15.38;;;;;;;;;;5015387;28;20258;-48
2022/03/20 06:02:16;;;;;;;18.10;13.43;;;;;;;;;;5015464;28;20609;-47
2022/03/20 06:04:42;;;;;;;22.92;15.90;;;;;;;;;;5015627;28;20640;-47
2022/03/20 06:07:08;;;;;;;26.43;15.03;;;;;;;;;;5015574;28;20176;-48
2022/03/20 06:09:34;;;;;;;26.75;15.32;;;;;;;;;;5015429;28;20477;-49
2022/03/20 06:12:00;;;;;;;20.43;14.70;;;;;;;;;;5015223;28;20821;-48
2022/03/20 06:14:26;;;;;;;23.50;16.10;;;;;;;;;;5015653;28;20409;-51
2022/03/20 06:16:53;;;;;;;29.07;16.50;;;;;;;;;;5015546;28;20442;-50
2022/03/20 06:19:19;;;;;;;20.40;14.38;;;;;;;;;;5015148;28;20458;-49
2022/03/20 06:21:46;;;;;;;23.23;16.53;;;;;;;;;;5015067;28;20284;-48
2022/03/20 06:24:12;;;;;;;24.58;15.82;;;;;;;;;;5015267;28;20449;-49
2022/03/20 06:26:38;;;;;;;23.20;14.77;;;;;;;;;;5015227;28;20164;-50
2022/03/20 06:29:05;;;;;;;23.10;15.87;;;;;;;;;;5015362;28;20586;-49
2022/03/20 06:31:31;;;;;;;22.83;14.73;;;;;;;;;;5014921;28;20423;-50
2022/03/20 06:33:58;;;;;;;19.85;15.55;;;;;;;;;;5015056;28;20172;-49
2022/03/20 06:36:24;;;;;;;24.05;15.07;;;;;;;;;;5015104;28;20244;-51
2022/03/20 06:38:50;;;;;;;28.38;17.13;;;;;;;;;;5014981;28;20184;-49
2022/03/20 06:41:17;;;;;;;19.85;14.77;;;;;;;;;;5014487;28;20226;-51
2022/03/20 06:43:43;;;;;;;17.67;12.57;;;;;;;;;;5015080;28;20199;-50
2022/03/20 06:46:09;;;;;;;26.50;15.10;;;;;;;;;;5014914;28;20231;-49
2022/03/20 06:48:35;;;;;;;27.63;15.53;;;;;;;;;;5014814;28;20912;-50
2022/03/20 06:51:02;;;;;;;24.87;15.00;;;;;;;;;;5014412;28;20966;-52
2022/03/20 06:53:29;;;;;;;21.33;15.13;;;;;;;;;;5014321;28;20946;-51
2022/03/20 06:55:55;;;;;;;21.05;14.45;;;;;;;;;;5014754;28;20222;-52
2022/03/20 06:58:22;;;;;;;18.93;14.07;;;;;;;;;;5014549;28;20288;-51
2022/03/20 07:00:48;;;;;;;21.07;15.07;;;;;;;;;;5014446;28;20409;-50
2022/03/20 07:03:15;;;;;;;22.60;14.37;;;;;;;;;;5014316;28;20435;-50
2022/03/20 07:05:41;;;;;;;21.23;15.03;;;;;;;;;;5014645;28;20414;-52
2022/03/20 07:08:08;;;;;;;21.03;14.83;;;;;;;;;;5014430;28;21033;-52
2022/03/20 07:10:34;;;;;;;22.50;14.90;;;;;;;;;;5013733;28;20498;-51
2022/03/20 07:15:46;;;;;;;24.20;15.90;;;;;;;;;;5014510;28;20407;-51
2022/03/20 07:18:15;;;;;;;18.80;14.63;;;;;;;;;;5014176;28;20513;-51
2022/03/20 07:20:43;;;;;;;21.97;14.50;;;;;;;;;;5013727;28;20931;-50
2022/03/20 07:23:10;;;;;;;25.80;16.83;;;;;;;;;;5014136;28;20452;-51
2022/03/20 07:31:13;;;;;;;23.77;16.60;;;;;;;;;;4997660;28;20956;-51
2022/03/20 07:33:40;;;;;;;23.13;16.87;;;;;;;;;;5013860;28;20409;-51
2022/03/20 07:36:06;;;;;;;25.83;16.13;;;;;;;;;;5013936;28;20776;-50
2022/03/20 07:38:35;;;;;;;22.90;16.23;;;;;;;;;;5013745;28;20905;-51
2022/03/20 07:41:00;;;;;;;21.50;16.50;;;;;;;;;;5013471;28;20427;-51
2022/03/20 07:43:26;;;;;;;20.97;15.77;;;;;;;;;;5014242;28;20843;-50
2022/03/20 07:45:53;;;;;;;19.50;14.87;;;;;;;;;;5013681;28;20820;-49
2022/03/20 07:48:23;;;;;;;22.45;15.43;;;;;;;;;;5013582;28;20827;-49
2022/03/20 07:50:50;;;;;;;20.95;16.35;;;;;;;;;;5013301;28;20172;-49
2022/03/20 07:53:17;;;;;;;23.95;16.50;;;;;;;;;;5013602;28;20227;-48
2022/03/20 07:55:44;;;;;;;20.98;14.68;;;;;;;;;;5013538;28;20222;-48
2022/03/20 07:58:09;;;;;;;23.00;16.30;;;;;;;;;;5013333;28;20259;-48
2022/03/20 08:00:39;;;;;;;19.90;14.50;;;;;;;;;;5013287;28;20320;-51
2022/03/20 08:03:05;;;;;;;24.27;15.57;;;;;;;;;;5013072;28;20510;-51
2022/03/20 08:05:31;;;;;;;20.15;14.75;;;;;;;;;;5012631;28;20175;-50
2022/03/20 08:07:58;;;;;;;25.73;15.67;;;;;;;;;;5013359;28;20164;-51
2022/03/20 08:10:24;;;;;;;23.20;15.57;;;;;;;;;;5012991;28;20764;-51
2022/03/20 08:12:50;;;;;;;26.53;17.23;;;;;;;;;;5012946;28;20928;-50
2022/03/20 08:15:17;;;;;;;21.40;15.67;;;;;;;;;;5013115;28;20415;-51
2022/03/20 08:17:43;;;;;;;22.40;15.97;;;;;;;;;;5013142;28;20406;-51
2022/03/20 08:20:10;;;;;;;25.17;16.70;;;;;;;;;;5012895;28;20981;-51
2022/03/20 08:22:37;;;;;;;21.03;15.47;;;;;;;;;;5013082;28;20759;-52
2022/03/20 08:25:03;;;;;;;21.67;16.17;;;;;;;;;;5013064;28;20403;-51
2022/03/20 08:27:29;;;;;;;23.20;17.03;;;;;;;;;;5012854;28;20399;-52
2022/03/20 08:29:57;;;;;;;23.50;17.13;;;;;;;;;;5012667;28;20442;-51
2022/03/20 08:32:23;;;;;;;23.47;17.50;;;;;;;;;;5012720;28;20904;-51
2022/03/20 08:34:50;;;;;;;24.53;18.07;;;;;;;;;;5012916;28;20497;-50
2022/03/20 08:37:16;;;;;;;24.30;18.13;;;;;;;;;;5012760;28;20445;-51
2022/03/20 08:39:42;;;;;;;23.17;16.87;;;;;;;;;;5012420;28;20820;-50
2022/03/20 08:42:08;;;;;;;25.93;17.17;;;;;;;;;;5012527;28;20444;-50
2022/03/20 08:44:34;;;;;;;30.67;18.30;;;;;;;;;;5005243;28;20421;-49
2022/03/20 08:47:00;;;;;;;22.63;17.30;;;;;;;;;;4993193;28;20978;-51
2022/03/20 08:49:26;;;;;;;22.10;17.00;;;;;;;;;;5006914;28;20407;-52
2022/03/20 08:51:52;;;;;;;21.30;15.53;;;;;;;;;;5011883;28;20485;-51
2022/03/20 08:54:18;;;;;;;25.57;16.57;;;;;;;;;;5012299;28;20400;-51
2022/03/20 08:56:44;;;;;;;23.30;17.97;;;;;;;;;;5007910;28;20412;-51
2022/03/20 08:59:10;;;;;;;25.90;17.70;;;;;;;;;;4992992;28;20571;-51
2022/03/20 09:01:36;;;;;;;26.60;17.53;;;;;;;;;;5003589;28;20434;-52
2022/03/20 09:04:02;;;;;;;24.30;17.57;;;;;;;;;;5012239;28;20450;-51
2022/03/20 09:06:28;;;;;;;25.40;18.00;;;;;;;;;;5012412;28;20482;-50
2022/03/20 09:08:55;;;;;;;23.63;18.30;;;;;;;;;;5012380;28;20458;-49
2022/03/20 09:11:21;;;;;;;23.60;18.30;;;;;;;;;;5011998;28;20427;-52
2022/03/20 09:13:47;;;;;;;27.03;19.17;;;;;;;;;;5001125;28;20473;-51
2022/03/20 09:19:07;;;;;;;26.27;18.50;;;;;;;;;;4992906;28;20426;-51
2022/03/20 09:21:37;;;;;;;24.20;18.80;;;;;;;;;;4992324;28;20415;-50
2022/03/20 09:24:03;;;;;;;30.10;19.47;;;;;;;;;;4992515;28;20396;-49
2022/03/20 09:26:30;;;;;;;26.97;19.73;;;;;;;;;;5009833;28;20415;-50
2022/03/20 09:28:56;;;;;;;34.70;20.53;;;;;;;;;;5011463;28;20430;-50
2022/03/20 09:31:22;;;;;;;30.53;19.87;;;;;;;;;;5010918;28;20453;-51
2022/03/20 09:33:49;;;;;;;26.60;20.40;;;;;;;;;;5011440;28;20414;-51
2022/03/20 09:36:15;;;;;;;26.10;18.93;;;;;;;;;;5011901;28;20399;-52
2022/03/20 09:38:41;;;;;;;23.37;18.40;;;;;;;;;;5011643;28;20833;-52
2022/03/20 09:41:09;;;;;;;26.17;19.50;;;;;;;;;;5011340;28;20462;-51
2022/03/20 09:43:39;;;;;;;25.93;19.10;;;;;;;;;;5011940;28;20457;-50
2022/03/20 09:46:05;;;;;;;26.70;19.47;;;;;;;;;;5011943;28;20450;-50
2022/03/20 09:48:31;;;;;;;26.70;19.63;;;;;;;;;;4994787;28;20440;-49
2022/03/20 09:51:00;;;;;;;25.93;19.50;;;;;;;;;;5010925;28;20423;-49
2022/03/20 09:53:27;;;;;;;28.70;20.50;;;;;;;;;;5010596;28;20412;-51
2022/03/20 09:55:57;;;;;;;29.73;19.40;;;;;;;;;;5011182;28;20485;-51
2022/03/20 09:58:24;;;;;;;27.03;19.30;;;;;;;;;;5010916;28;20457;-52
2022/03/20 10:00:50;;;;;;;29.97;20.60;;;;;;;;;;5010800;28;20412;-51
2022/03/20 10:03:17;;;;;;;35.40;21.83;;;;;;;;;;5011404;28;20404;-50
2022/03/20 10:05:43;;;;;;;28.27;20.43;;;;;;;;;;5009740;28;20449;-52
2022/03/20 10:08:10;;;;;;;28.03;20.40;;;;;;;;;;5011958;28;20406;-51
2022/03/20 10:10:36;;;;;;;28.17;21.70;;;;;;;;;;5011649;28;20445;-52
2022/03/20 10:13:11;;;;;;;26.17;19.97;;;;;;;;;;5011631;28;20425;-52
2022/03/20 10:15:38;;;;;;;29.67;22.10;;;;;;;;;;5011659;28;20413;-50
2022/03/20 10:18:14;;;;;;;28.30;21.50;;;;;;;;;;5011502;28;20403;-52
2022/03/20 10:20:50;;;;;;;28.63;20.93;;;;;;;;;;5011434;28;20815;-52
2022/03/20 10:23:36;;;;;;;25.03;20.87;;;;;;;;;;5011669;28;20490;-50
2022/03/20 10:26:16;;;;;;;28.27;21.30;;;;;;;;;;5008418;28;20501;-49
2022/03/20 10:28:42;;;;;;;28.63;21.67;;;;;;;;;;5012382;28;20413;-52
2022/03/20 10:31:09;;;;;;;29.67;22.33;;;;;;;;;;4997033;28;20401;-51
2022/03/20 10:33:40;;;;;;;33.63;22.80;;;;;;;;;;5000351;28;20409;-52
2022/03/20 10:36:16;;;;;;;32.60;24.67;;;;;;;;;;5030460;28;20810;-52
2022/03/20 10:38:43;;;;;;;30.70;22.93;;;;;;;;;;5030127;28;20486;-51
2022/03/20 10:41:32;;;;;;;29.40;23.00;;;;;;;;;;5014742;28;20398;-52
2022/03/20 10:43:59;;;;;;;30.60;23.50;;;;;;;;;;5014991;28;20739;-51
2022/03/20 10:46:26;;;;;;;32.40;23.90;;;;;;;;;;5005145;28;20390;-52
2022/03/20 10:48:54;;;;;;;39.60;26.00;;;;;;;;;;4995322;28;20400;-51
2022/03/20 10:51:27;;;;;;;31.53;23.60;;;;;;;;;;4994883;28;20417;-50
2022/03/20 10:54:01;;;;;;;33.47;26.13;;;;;;;;;;4995198;28;20479;-49
2022/03/20 10:56:27;;;;;;;34.10;25.30;;;;;;;;;;4995251;28;20408;-50
2022/03/20 10:58:53;;;;;;;37.23;26.60;;;;;;;;;;4998640;28;20513;-52
2022/03/20 11:01:33;;;;;;;34.70;25.83;;;;;;;;;;5014412;28;20425;-52
2022/03/20 11:04:00;;;;;;;34.67;23.77;;;;;;;;;;5014526;28;20399;-52
2022/03/20 11:06:26;;;;;;;32.90;24.10;;;;;;;;;;5014538;28;20491;-51
2022/03/20 11:08:52;;;;;;;32.53;24.97;;;;;;;;;;5014449;28;20873;-51
2022/03/20 11:11:19;;;;;;;32.00;23.93;;;;;;;;;;5014219;28;20497;-52
2022/03/20 11:13:48;;;;;;;31.50;24.53;;;;;;;;;;5014516;28;20438;-51
2022/03/20 11:16:15;;;;;;;35.10;24.50;;;;;;;;;;5014396;28;20764;-52
2022/03/20 11:18:41;;;;;;;30.60;23.40;;;;;;;;;;5014393;28;20978;-52
2022/03/20 11:21:10;;;;;;;32.50;25.00;;;;;;;;;;5013990;28;20923;-52
2022/03/20 11:23:37;;;;;;;33.60;24.23;;;;;;;;;;5014131;28;20487;-51
2022/03/20 11:26:03;;;;;;;32.10;23.63;;;;;;;;;;5014028;28;20790;-52
2022/03/20 11:28:31;;;;;;;32.57;25.50;;;;;;;;;;5013888;28;20445;-52
2022/03/20 11:30:58;;;;;;;30.37;23.43;;;;;;;;;;5013950;28;20963;-51
2022/03/20 11:33:24;;;;;;;33.23;26.03;;;;;;;;;;5014108;28;20432;-52
2022/03/20 11:35:50;;;;;;;29.23;22.90;;;;;;;;;;5014136;28;20412;-51
2022/03/20 11:38:21;;;;;;;35.70;24.67;;;;;;;;;;5014042;28;20381;-52
2022/03/20 11:41:07;;;;;;;32.50;25.70;;;;;;;;;;5012638;28;20414;-52
2022/03/20 11:43:33;;;;;;;36.07;25.80;;;;;;;;;;5013921;28;20374;-47
2022/03/20 11:46:18;;;;;;;35.87;23.47;;;;;;;;;;5014073;28;20465;-48
2022/03/20 11:48:45;;;;;;;35.40;25.10;;;;;;;;;;5013479;28;20509;-48
2022/03/20 11:51:11;;;;;;;32.20;24.33;;;;;;;;;;5013560;28;20445;-47
2022/03/20 11:53:40;;;;;;;35.93;24.10;;;;;;;;;;5013788;28;20432;-47
2022/03/20 11:56:07;;;;;;;39.37;24.87;;;;;;;;;;5013962;28;20854;-50
2022/03/20 11:58:33;;;;;;;32.57;23.43;;;;;;;;;;5013413;28;21070;-50
2022/03/20 12:01:03;;;;;;;33.17;25.27;;;;;;;;;;5013198;28;20531;-50
2022/03/20 12:03:47;;;;;;;36.40;25.80;;;;;;;;;;5013386;28;20394;-47
2022/03/20 12:06:19;;;;;;;38.60;25.37;;;;;;;;;;5013488;28;20376;-47
2022/03/20 12:08:55;;;;;;;38.80;26.40;;;;;;;;;;5013080;28;20391;-47
2022/03/20 12:11:21;;;;;;;33.77;25.30;;;;;;;;;;5012736;28;20439;-47
2022/03/20 12:13:59;;;;;;;36.47;25.70;;;;;;;;;;5013162;28;20422;-46
2022/03/20 12:16:58;;;;;;;42.23;27.23;;;;;;;;;;5013201;28;20426;-48
2022/03/20 12:19:35;;;;;;;35.00;24.63;;;;;;;;;;4980870;28;20478;-47
2022/03/20 12:22:03;;;;;;;37.77;26.13;;;;;;;;;;5012243;28;20407;-53
2022/03/20 12:24:38;;;;;;;37.43;27.93;;;;;;;;;;4993518;28;20444;-50
2022/03/20 12:27:19;;;;;;;40.50;26.10;;;;;;;;;;4993419;28;20536;-52
2022/03/20 12:29:45;;;;;;;34.03;24.13;;;;;;;;;;4993408;28;20750;-51
2022/03/20 12:32:13;;;;;;;36.60;24.20;;;;;;;;;;4993308;28;20427;-51
2022/03/20 12:34:39;;;;;;;38.10;27.70;;;;;;;;;;4996315;28;20409;-48
2022/03/20 12:37:24;;;;;;;43.43;27.27;;;;;;;;;;5012928;28;20479;-47
2022/03/20 12:39:54;;;;;;;35.10;25.10;;;;;;;;;;5012508;28;20575;-49
2022/03/20 12:42:20;;;;;;;30.37;20.50;;;;;;;;;;5012501;28;20438;-47
2022/03/20 12:44:47;;;;;;;37.33;26.00;;;;;;;;;;5012705;28;20892;-49
2022/03/20 12:47:15;;;;;;;56.80;38.90;;;;;;;;;;4994119;28;20968;-48
2022/03/20 12:49:42;;;;;;;36.30;25.03;;;;;;;;;;5005487;28;20411;-49
2022/03/20 12:52:08;;;;;;;34.80;24.57;;;;;;;;;;5010085;28;20423;-49
2022/03/20 12:54:35;;;;;;;34.53;24.00;;;;;;;;;;5012008;28;20457;-49
2022/03/20 12:57:04;;;;;;;32.90;24.33;;;;;;;;;;5012366;28;20394;-49
2022/03/20 12:59:30;;;;;;;32.27;24.63;;;;;;;;;;5012076;28;20527;-48
2022/03/20 13:01:57;;;;;;;33.37;24.60;;;;;;;;;;5011676;28;20409;-49
2022/03/20 13:04:24;;;;;;;31.70;22.43;;;;;;;;;;5010475;28;20856;-49
2022/03/20 13:06:51;;;;;;;33.20;22.43;;;;;;;;;;5012038;28;20485;-48
2022/03/20 13:09:17;;;;;;;32.50;23.00;;;;;;;;;;5012073;28;20404;-50
2022/03/20 13:11:52;;;;;;;27.33;22.37;;;;;;;;;;5011049;28;20505;-49
2022/03/20 13:14:18;;;;;;;31.43;21.23;;;;;;;;;;5011803;28;20884;-49
2022/03/20 13:16:58;;;;;;;32.63;22.10;;;;;;;;;;5011692;28;20510;-49
2022/03/20 13:19:28;;;;;;;34.90;23.20;;;;;;;;;;5011594;28;20487;-48
2022/03/20 13:21:54;;;;;;;34.27;23.47;;;;;;;;;;5011475;28;20458;-50
2022/03/20 13:24:47;;;;;;;36.20;23.50;;;;;;;;;;5006881;28;20807;-52
2022/03/20 13:27:13;;;;;;;33.43;23.57;;;;;;;;;;5001269;28;20474;-52
2022/03/20 13:29:40;;;;;;;31.33;23.60;;;;;;;;;;5011234;28;20462;-52
2022/03/20 13:32:08;;;;;;;30.30;24.20;;;;;;;;;;5011428;28;20440;-51
2022/03/20 13:34:40;;;;;;;30.50;25.40;;;;;;;;;;5010175;28;20438;-51
2022/03/20 13:37:10;;;;;;;32.80;24.97;;;;;;;;;;5011357;28;20427;-49
2022/03/20 13:39:36;;;;;;;32.37;24.13;;;;;;;;;;5010445;28;20500;-50
2022/03/20 13:42:14;;;;;;;33.50;25.20;;;;;;;;;;5010885;28;20502;-52
2022/03/20 13:44:40;;;;;;;30.50;24.40;;;;;;;;;;5011800;28;20435;-52
2022/03/20 13:47:07;;;;;;;35.43;24.50;;;;;;;;;;5010621;28;20899;-51
2022/03/20 13:49:33;;;;;;;34.17;23.20;;;;;;;;;;5010780;28;20398;-49
2022/03/20 13:51:59;;;;;;;33.23;24.20;;;;;;;;;;5010675;28;20498;-52
2022/03/20 13:54:25;;;;;;;33.90;24.13;;;;;;;;;;5011514;28;20403;-52
2022/03/20 13:57:11;;;;;;;27.30;21.90;;;;;;;;;;5011614;28;20396;-52
2022/03/20 13:59:51;;;;;;;34.10;22.60;;;;;;;;;;5011493;28;20819;-51
2022/03/20 14:02:17;;;;;;;32.60;22.03;;;;;;;;;;5010937;28;20438;-51
2022/03/20 14:04:44;;;;;;;23.77;18.97;;;;;;;;;;5013336;28;20516;-52
2022/03/20 14:07:23;;;;;;;30.90;22.20;;;;;;;;;;5014859;28;20407;-52
2022/03/20 14:09:50;;;;;;;32.10;20.90;;;;;;;;;;5014727;28;20424;-52
2022/03/20 14:12:27;;;;;;;34.13;21.83;;;;;;;;;;5013816;28;20438;-52
2022/03/20 14:14:54;;;;;;;27.90;20.83;;;;;;;;;;5014747;28;20510;-50
2022/03/20 14:17:38;;;;;;;29.30;21.20;;;;;;;;;;5014595;28;20403;-52
2022/03/20 14:20:06;;;;;;;29.30;21.20;;;;;;;;;;5014000;28;20469;-52
2022/03/20 14:22:42;;;;;;;25.80;20.57;;;;;;;;;;5014469;28;20440;-51
2022/03/20 14:25:08;;;;;;;28.73;19.80;;;;;;;;;;5015176;28;20432;-49
2022/03/20 14:27:36;;;;;;;24.40;19.27;;;;;;;;;;5015304;28;20560;-51
2022/03/20 14:41:26;;;;;;;22.17;17.00;;;;;;;;;;5014362;28;20980;-52
2022/03/20 14:44:05;;;;;;;21.20;17.50;;;;;;;;;;5014752;28;20423;-52
2022/03/20 14:46:31;;;;;;;21.57;16.97;;;;;;;;;;5014745;28;20889;-51
2022/03/20 14:48:57;;;;;;;22.43;17.33;;;;;;;;;;5014391;28;20418;-52
2022/03/20 14:51:24;;;;;;;22.20;17.50;;;;;;;;;;5014212;28;20494;-52
2022/03/20 14:53:50;;;;;;;23.90;16.73;;;;;;;;;;5014679;28;20782;-51
2022/03/20 14:56:16;;;;;;;29.07;20.73;;;;;;;;;;5014911;28;20408;-50
2022/03/20 14:58:45;;;;;;;22.47;19.27;;;;;;;;;;4998709;28;20510;-50
2022/03/20 15:01:10;;;;;;;26.43;19.67;;;;;;;;;;4994991;28;20790;-50
2022/03/20 15:03:36;;;;;;;27.07;19.70;;;;;;;;;;5013104;28;20435;-52
2022/03/20 15:06:03;;;;;;;25.77;20.10;;;;;;;;;;5014632;28;20375;-51
2022/03/20 15:11:26;;;;;;;34.73;22.07;;;;;;;;;;5014446;28;20493;-50